createdAt,value
2017-07-27T00:01:07.512Z,6.77
2017-07-27T00:03:35.753Z,16.57
2017-07-27T00:06:03.231Z,12.80
2017-07-27T00:08:30.784Z,8.07
2017-07-27T00:10:59.017Z,7.63
2017-07-27T00:13:26.451Z,7.17
2017-07-27T00:15:53.899Z,7.13
2017-07-27T00:18:21.334Z,7.87
2017-07-27T00:20:48.793Z,7.80
2017-07-27T00:23:16.233Z,9.20
2017-07-27T00:25:43.772Z,7.47
2017-07-27T00:28:11.230Z,8.40
2017-07-27T00:30:39.428Z,8.20
2017-07-27T00:33:06.903Z,8.60
2017-07-27T00:35:34.331Z,7.20
2017-07-27T00:38:01.857Z,7.43
2017-07-27T00:40:29.299Z,7.23
2017-07-27T00:42:56.800Z,7.60
2017-07-27T00:45:24.236Z,8.10
2017-07-27T00:47:51.669Z,8.43
2017-07-27T00:50:19.113Z,7.97
2017-07-27T00:52:46.565Z,7.50
2017-07-27T00:55:14.013Z,8.37
2017-07-27T00:57:41.442Z,8.40
2017-07-27T01:00:08.912Z,7.97
2017-07-27T01:02:37.112Z,8.17
2017-07-27T01:05:04.667Z,9.17
2017-07-27T01:07:32.102Z,8.10
2017-07-27T01:09:59.544Z,7.63
2017-07-27T01:12:27.041Z,8.33
2017-07-27T01:14:55.243Z,13.33
2017-07-27T01:17:22.720Z,27.80
2017-07-27T01:19:50.173Z,11.30
2017-07-27T01:22:17.625Z,10.03
2017-07-27T01:24:45.837Z,9.07
2017-07-27T01:27:13.339Z,10.17
2017-07-27T01:29:41.702Z,8.23
2017-07-27T01:32:09.891Z,8.50
2017-07-27T01:34:37.339Z,10.87
2017-07-27T01:37:04.781Z,9.23
2017-07-27T01:39:32.270Z,8.93
2017-07-27T01:41:59.705Z,9.83
2017-07-27T01:44:27.149Z,8.53
2017-07-27T01:46:54.610Z,9.40
2017-07-27T01:49:22.080Z,9.70
2017-07-27T01:51:49.511Z,8.80
2017-07-27T01:54:16.964Z,9.33
2017-07-27T01:56:44.476Z,8.87
2017-07-27T01:59:12.723Z,9.10
2017-07-27T02:01:40.168Z,9.00
2017-07-27T02:04:07.616Z,10.70
2017-07-27T02:06:35.048Z,9.83
2017-07-27T02:09:02.496Z,9.43
2017-07-27T02:11:30.015Z,9.60
2017-07-27T02:13:57.473Z,8.13
2017-07-27T02:16:24.904Z,9.30
2017-07-27T02:18:52.347Z,10.03
2017-07-27T02:21:19.797Z,9.40
2017-07-27T02:23:47.235Z,10.43
2017-07-27T02:26:14.693Z,9.70
2017-07-27T02:28:42.216Z,8.97
2017-07-27T02:31:09.669Z,11.27
2017-07-27T02:33:37.107Z,10.80
2017-07-27T02:36:04.552Z,9.00
2017-07-27T02:38:31.993Z,10.37
2017-07-27T02:40:59.429Z,9.53
2017-07-27T02:43:26.904Z,9.20
2017-07-27T02:45:54.348Z,9.67
2017-07-27T02:48:22.596Z,10.03
2017-07-27T02:50:50.041Z,9.63
2017-07-27T02:53:17.519Z,8.80
2017-07-27T02:55:44.980Z,9.57
2017-07-27T02:58:12.487Z,8.60
2017-07-27T03:00:40.699Z,9.00
2017-07-27T03:03:08.182Z,9.57
2017-07-27T03:05:35.621Z,8.50
2017-07-27T03:08:03.077Z,8.20
2017-07-27T03:10:31.295Z,9.53
2017-07-27T03:12:58.764Z,8.40
2017-07-27T03:15:26.216Z,8.47
2017-07-27T03:17:53.757Z,9.40
2017-07-27T03:20:21.199Z,8.00
2017-07-27T03:22:48.654Z,9.37
2017-07-27T03:25:16.882Z,8.27
2017-07-27T03:27:44.329Z,9.90
2017-07-27T03:30:11.797Z,7.87
2017-07-27T03:32:40.020Z,9.07
2017-07-27T03:35:07.593Z,8.87
2017-07-27T03:37:35.241Z,7.70
2017-07-27T03:40:02.805Z,7.90
2017-07-27T03:42:31.005Z,8.57
2017-07-27T03:44:58.453Z,7.93
2017-07-27T03:47:25.897Z,9.63
2017-07-27T03:49:53.341Z,8.20
2017-07-27T03:52:20.817Z,7.97
2017-07-27T03:54:48.363Z,7.90
2017-07-27T03:57:15.809Z,9.33
2017-07-27T03:59:43.265Z,8.67
2017-07-27T04:02:11.469Z,9.00
2017-07-27T04:04:39.025Z,7.90
2017-07-27T04:07:06.456Z,8.10
2017-07-27T04:09:33.950Z,8.30
2017-07-27T04:12:02.160Z,8.97
2017-07-27T04:14:29.609Z,8.50
2017-07-27T04:16:57.044Z,8.03
2017-07-27T04:19:24.488Z,9.60
2017-07-27T04:21:51.958Z,9.10
2017-07-27T04:24:30.602Z,8.50
2017-07-27T04:26:58.044Z,9.00
2017-07-27T04:29:25.493Z,8.70
2017-07-27T04:31:52.941Z,8.13
2017-07-27T04:34:20.411Z,9.70
2017-07-27T04:36:47.857Z,8.33
2017-07-27T04:39:15.505Z,10.10
2017-07-27T04:41:42.950Z,9.10
2017-07-27T04:44:10.393Z,9.07
2017-07-27T04:46:37.847Z,8.93
2017-07-27T04:49:05.306Z,8.37
2017-07-27T04:51:32.866Z,8.50
2017-07-27T04:54:00.293Z,7.43
2017-07-27T04:56:27.733Z,7.67
2017-07-27T04:58:55.161Z,7.40
2017-07-27T05:01:22.601Z,6.80
2017-07-27T05:03:50.049Z,7.40
2017-07-27T05:06:17.498Z,6.80
2017-07-27T05:08:44.939Z,7.00
2017-07-27T05:11:12.425Z,7.40
2017-07-27T05:13:39.978Z,8.87
2017-07-27T05:16:07.477Z,8.30
2017-07-27T05:18:34.930Z,6.43
2017-07-27T05:21:02.444Z,6.90
2017-07-27T05:23:29.887Z,6.30
2017-07-27T05:25:57.374Z,6.57
2017-07-27T05:28:25.574Z,6.80
2017-07-27T05:30:53.044Z,7.30
2017-07-27T05:33:20.526Z,6.77
2017-07-27T05:35:48.732Z,7.00
2017-07-27T05:38:16.198Z,7.17
2017-07-27T05:40:43.660Z,7.33
2017-07-27T05:43:11.871Z,7.80
2017-07-27T05:45:39.356Z,7.80
2017-07-27T05:48:06.899Z,8.53
2017-07-27T05:50:34.354Z,7.87
2017-07-27T05:53:02.572Z,6.13
2017-07-27T05:55:30.023Z,7.90
2017-07-27T05:57:57.469Z,8.03
2017-07-27T06:00:24.911Z,7.30
2017-07-27T06:02:52.369Z,6.70
2017-07-27T06:05:19.819Z,7.10
2017-07-27T06:07:47.353Z,6.67
2017-07-27T06:10:14.921Z,5.50
2017-07-27T06:12:43.159Z,5.50
2017-07-27T06:15:10.703Z,5.67
2017-07-27T06:17:38.167Z,5.33
2017-07-27T06:20:06.432Z,4.40
2017-07-27T06:22:34.633Z,4.37
2017-07-27T06:25:02.089Z,4.83
2017-07-27T06:27:29.524Z,4.73
2017-07-27T06:29:57.001Z,4.40
2017-07-27T06:32:24.437Z,4.50
2017-07-27T06:34:51.888Z,4.67
2017-07-27T06:37:19.338Z,4.50
2017-07-27T06:39:47.661Z,5.53
2017-07-27T06:42:15.127Z,4.93
2017-07-27T06:44:42.566Z,4.60
2017-07-27T06:47:10.026Z,3.97
2017-07-27T06:49:38.281Z,4.40
2017-07-27T06:52:05.739Z,4.30
2017-07-27T06:54:33.993Z,3.53
2017-07-27T06:57:02.220Z,3.80
2017-07-27T06:59:29.676Z,4.70
2017-07-27T07:01:57.139Z,7.00
2017-07-27T07:04:24.578Z,9.43
2017-07-27T07:06:52.035Z,4.30
2017-07-27T07:09:20.246Z,4.13
2017-07-27T07:11:47.793Z,4.40
2017-07-27T07:14:15.237Z,3.70
2017-07-27T07:16:42.663Z,3.40
2017-07-27T07:19:10.107Z,4.33
2017-07-27T07:21:37.553Z,4.10
2017-07-27T07:24:05.015Z,5.13
2017-07-27T07:26:32.465Z,4.27
2017-07-27T07:28:59.919Z,4.20
2017-07-27T07:31:27.365Z,5.00
2017-07-27T07:33:54.814Z,4.30
2017-07-27T07:36:22.350Z,4.17
2017-07-27T07:38:49.787Z,4.70
2017-07-27T07:41:17.225Z,4.70
2017-07-27T07:43:44.749Z,4.43
2017-07-27T07:46:12.221Z,4.60
2017-07-27T07:48:39.644Z,4.73
2017-07-27T07:51:07.084Z,3.77
2017-07-27T07:53:34.528Z,4.73
2017-07-27T07:56:01.970Z,4.47
2017-07-27T07:58:29.412Z,3.90
2017-07-27T08:00:56.860Z,3.97
2017-07-27T08:03:24.317Z,3.23
2017-07-27T08:05:51.757Z,4.60
2017-07-27T08:08:19.313Z,3.40
2017-07-27T08:10:46.736Z,4.33
2017-07-27T08:13:14.177Z,4.73
2017-07-27T08:15:41.642Z,4.67
2017-07-27T08:18:09.077Z,4.87
2017-07-27T08:20:36.536Z,4.60
2017-07-27T08:23:04.771Z,4.13
2017-07-27T08:25:32.196Z,3.93
2017-07-27T08:27:59.641Z,4.03
2017-07-27T08:30:27.216Z,4.20
2017-07-27T08:32:55.484Z,3.90
2017-07-27T08:35:23.685Z,4.90
2017-07-27T08:37:51.213Z,4.17
2017-07-27T08:40:19.414Z,4.50
2017-07-27T08:42:46.899Z,3.70
2017-07-27T08:45:15.103Z,3.90
2017-07-27T08:47:42.548Z,4.80
2017-07-27T08:50:10.352Z,3.53
2017-07-27T08:52:37.827Z,3.90
2017-07-27T08:55:05.278Z,4.10
2017-07-27T08:57:32.765Z,5.87
2017-07-27T09:00:00.209Z,4.17
2017-07-27T09:02:27.660Z,3.53
2017-07-27T09:04:56.006Z,3.33
2017-07-27T09:07:23.439Z,3.60
2017-07-27T09:09:50.902Z,3.90
2017-07-27T09:12:18.435Z,4.23
2017-07-27T09:14:45.892Z,4.30
2017-07-27T09:17:14.112Z,4.10
2017-07-27T09:19:42.072Z,3.80
2017-07-27T09:22:09.526Z,4.07
2017-07-27T09:24:36.981Z,4.67
2017-07-27T09:27:04.422Z,3.80
2017-07-27T09:29:31.865Z,3.50
2017-07-27T09:31:59.310Z,3.30
2017-07-27T09:34:26.741Z,3.20
2017-07-27T09:36:54.203Z,3.50
2017-07-27T09:39:21.644Z,3.63
2017-07-27T09:41:49.117Z,3.43
2017-07-27T09:44:16.577Z,5.90
2017-07-27T09:46:44.012Z,4.47
2017-07-27T09:49:12.049Z,3.57
2017-07-27T09:51:40.272Z,3.10
2017-07-27T09:54:07.729Z,3.37
2017-07-27T09:56:35.155Z,3.57
2017-07-27T09:59:02.669Z,4.40
2017-07-27T10:01:30.104Z,3.90
2017-07-27T10:03:57.542Z,3.40
2017-07-27T10:06:24.985Z,3.37
2017-07-27T10:08:52.457Z,3.33
2017-07-27T10:11:19.945Z,3.40
2017-07-27T10:13:47.365Z,3.27
2017-07-27T10:16:14.812Z,3.83
2017-07-27T10:18:42.260Z,2.93
2017-07-27T10:21:09.729Z,3.57
2017-07-27T10:23:37.969Z,2.90
2017-07-27T10:26:05.426Z,3.00
2017-07-27T10:28:33.632Z,3.00
2017-07-27T10:31:01.061Z,2.63
2017-07-27T10:33:28.624Z,2.90
2017-07-27T10:35:56.049Z,3.10
2017-07-27T10:38:23.510Z,3.30
2017-07-27T10:40:51.737Z,4.00
2017-07-27T10:43:19.181Z,4.67
2017-07-27T10:45:46.652Z,3.53
2017-07-27T10:48:14.076Z,3.60
2017-07-27T10:50:41.550Z,3.60
2017-07-27T10:53:09.046Z,3.43
2017-07-27T10:55:36.481Z,3.60
2017-07-27T10:58:04.708Z,3.13
2017-07-27T11:00:32.213Z,3.30
2017-07-27T11:02:59.663Z,3.30
2017-07-27T11:05:27.136Z,3.13
2017-07-27T11:07:54.574Z,2.73
2017-07-27T11:10:22.022Z,3.07
2017-07-27T11:12:49.494Z,2.87
2017-07-27T11:15:17.721Z,2.90
2017-07-27T11:17:45.235Z,3.20
2017-07-27T11:20:12.688Z,3.13
2017-07-27T11:22:40.141Z,3.00
2017-07-27T11:25:07.605Z,2.70
2017-07-27T11:27:35.071Z,2.20
2017-07-27T11:30:02.513Z,1.60
2017-07-27T11:32:30.752Z,2.00
2017-07-27T11:34:58.194Z,2.57
2017-07-27T11:37:25.633Z,2.17
2017-07-27T11:39:53.079Z,1.63
2017-07-27T11:42:20.517Z,2.00
2017-07-27T11:44:47.985Z,1.80
2017-07-27T11:47:16.368Z,2.10
2017-07-27T11:49:43.847Z,1.50
2017-07-27T11:52:11.285Z,1.77
2017-07-27T11:54:38.932Z,1.40
2017-07-27T11:57:06.374Z,1.67
2017-07-27T11:59:34.634Z,2.07
2017-07-27T12:02:02.078Z,4.37
2017-07-27T12:04:29.530Z,3.37
2017-07-27T12:06:57.092Z,2.37
2017-07-27T12:09:24.545Z,2.20
2017-07-27T12:11:52.769Z,1.90
2017-07-27T12:14:20.216Z,3.37
2017-07-27T12:16:47.658Z,2.30
2017-07-27T12:19:15.111Z,2.47
2017-07-27T12:21:42.536Z,2.73
2017-07-27T12:24:10.091Z,2.40
2017-07-27T12:26:37.525Z,2.30
2017-07-27T12:29:04.968Z,2.20
2017-07-27T12:31:32.412Z,2.17
2017-07-27T12:33:59.859Z,2.80
2017-07-27T12:36:27.307Z,3.20
2017-07-27T12:38:54.818Z,3.40
2017-07-27T12:41:22.403Z,3.60
2017-07-27T12:43:49.871Z,3.20
2017-07-27T12:46:18.073Z,3.37
2017-07-27T12:48:45.506Z,3.53
2017-07-27T12:51:12.949Z,3.13
2017-07-27T12:53:40.391Z,2.90
2017-07-27T12:56:07.841Z,3.40
2017-07-27T12:58:35.269Z,2.97
2017-07-27T13:01:02.715Z,3.07
2017-07-27T13:03:30.155Z,3.23
2017-07-27T13:05:57.606Z,3.40
2017-07-27T13:08:25.055Z,13.93
2017-07-27T13:10:52.515Z,3.80
2017-07-27T13:13:20.075Z,3.20
2017-07-27T13:15:47.552Z,2.90
2017-07-27T13:18:15.047Z,3.20
2017-07-27T13:20:42.467Z,2.93
2017-07-27T13:23:09.977Z,2.80
2017-07-27T13:25:37.425Z,2.63
2017-07-27T13:28:05.640Z,2.70
2017-07-27T13:30:33.092Z,3.70
2017-07-27T13:33:00.574Z,2.30
2017-07-27T13:35:28.016Z,2.30
2017-07-27T13:37:55.453Z,3.00
2017-07-27T13:40:23.668Z,2.40
2017-07-27T13:42:51.095Z,2.37
2017-07-27T13:45:18.520Z,2.50
2017-07-27T13:47:45.995Z,2.47
2017-07-27T13:50:13.462Z,2.27
2017-07-27T13:52:40.896Z,2.30
2017-07-27T13:55:08.337Z,2.77
2017-07-27T13:57:35.792Z,2.50
2017-07-27T14:00:03.225Z,3.10
2017-07-27T14:02:30.714Z,2.53
2017-07-27T14:04:58.148Z,2.50
2017-07-27T14:07:26.360Z,3.00
2017-07-27T14:09:53.840Z,2.27
2017-07-27T14:12:21.259Z,3.17
2017-07-27T14:14:49.269Z,3.53
2017-07-27T14:17:16.722Z,3.17
2017-07-27T14:19:44.165Z,2.47
2017-07-27T14:22:11.600Z,2.97
2017-07-27T14:24:39.055Z,3.13
2017-07-27T14:27:06.472Z,2.60
2017-07-27T14:29:33.910Z,4.30
2017-07-27T14:32:01.365Z,3.50
2017-07-27T14:34:28.787Z,3.53
2017-07-27T14:36:56.991Z,2.93
2017-07-27T14:39:24.449Z,3.10
2017-07-27T14:41:51.881Z,3.70
2017-07-27T14:44:19.324Z,3.47
2017-07-27T14:46:46.768Z,3.13
2017-07-27T14:49:14.249Z,3.90
2017-07-27T14:51:42.448Z,3.30
2017-07-27T14:54:09.899Z,3.20
2017-07-27T14:56:37.352Z,3.60
2017-07-27T14:59:04.804Z,3.07
2017-07-27T15:01:32.339Z,3.40
2017-07-27T15:03:59.761Z,3.23
2017-07-27T15:06:27.210Z,2.90
2017-07-27T15:08:54.670Z,2.97
2017-07-27T15:11:22.145Z,2.93
2017-07-27T15:13:49.622Z,3.57
2017-07-27T15:16:17.149Z,6.90
2017-07-27T15:18:45.357Z,3.77
2017-07-27T15:21:12.797Z,4.37
2017-07-27T15:23:40.220Z,3.17
2017-07-27T15:26:07.660Z,2.93
2017-07-27T15:28:35.269Z,3.27
2017-07-27T15:31:02.700Z,3.63
2017-07-27T15:33:30.136Z,3.30
2017-07-27T15:35:57.559Z,3.67
2017-07-27T15:38:25.019Z,4.13
2017-07-27T15:40:52.480Z,3.20
2017-07-27T15:43:19.932Z,3.80
2017-07-27T15:45:48.165Z,3.90
2017-07-27T15:48:15.601Z,4.00
2017-07-27T15:50:43.056Z,4.20
2017-07-27T15:53:10.557Z,4.37
2017-07-27T15:55:38.052Z,4.17
2017-07-27T15:58:05.485Z,4.57
2017-07-27T16:00:32.927Z,3.33
2017-07-27T16:03:00.366Z,4.60
2017-07-27T16:05:27.809Z,3.93
2017-07-27T16:07:55.239Z,3.80
2017-07-27T16:10:22.705Z,3.40
2017-07-27T16:12:50.152Z,4.00
2017-07-27T16:15:17.637Z,3.40
2017-07-27T16:17:45.077Z,3.20
2017-07-27T16:20:12.517Z,4.33
2017-07-27T16:22:39.970Z,3.70
2017-07-27T16:25:07.401Z,3.67
2017-07-27T16:27:34.849Z,3.60
2017-07-27T16:30:02.357Z,3.90
2017-07-27T16:32:29.795Z,3.30
2017-07-27T16:34:57.262Z,3.73
2017-07-27T16:37:25.493Z,3.47
2017-07-27T16:39:52.945Z,3.60
2017-07-27T16:42:20.436Z,3.40
2017-07-27T16:44:47.869Z,3.33
2017-07-27T16:47:15.363Z,3.37
2017-07-27T16:49:42.813Z,3.20
2017-07-27T16:52:10.285Z,3.37
2017-07-27T16:54:38.481Z,3.30
2017-07-27T16:57:05.922Z,3.20
2017-07-27T16:59:33.380Z,4.27
2017-07-27T17:02:00.809Z,3.30
2017-07-27T17:04:28.361Z,3.40
2017-07-27T17:06:55.794Z,2.83
2017-07-27T17:09:23.220Z,3.13
2017-07-27T17:11:50.684Z,2.87
2017-07-27T17:14:18.122Z,3.03
2017-07-27T17:16:45.571Z,3.00
2017-07-27T17:19:13.020Z,3.10
2017-07-27T17:21:40.459Z,3.10
2017-07-27T17:24:07.908Z,3.60
2017-07-27T17:26:35.349Z,3.07
2017-07-27T17:29:02.808Z,3.10
2017-07-27T17:31:30.252Z,3.07
2017-07-27T17:33:57.792Z,3.53
2017-07-27T17:36:25.231Z,3.03
2017-07-27T17:38:52.724Z,3.00
2017-07-27T17:41:20.148Z,3.80
2017-07-27T17:43:48.358Z,3.10
2017-07-27T17:46:15.825Z,4.40
2017-07-27T17:48:43.989Z,4.20
2017-07-27T17:51:11.518Z,4.13
2017-07-27T17:53:38.972Z,3.27
2017-07-27T17:56:06.434Z,3.90
2017-07-27T17:58:34.683Z,3.93
2017-07-27T18:01:02.128Z,3.43
2017-07-27T18:03:29.571Z,3.20
2017-07-27T18:05:57.007Z,3.57
2017-07-27T18:08:24.461Z,4.10
2017-07-27T18:10:51.968Z,3.90
2017-07-27T18:13:19.426Z,3.63
2017-07-27T18:15:46.848Z,3.77
2017-07-27T18:18:14.289Z,3.80
2017-07-27T18:20:41.799Z,4.07
2017-07-27T18:23:09.253Z,3.63
2017-07-27T18:25:36.708Z,3.70
2017-07-27T18:28:04.175Z,3.53
2017-07-27T18:30:31.633Z,3.50
2017-07-27T18:32:59.064Z,3.27
2017-07-27T18:35:26.509Z,4.37
2017-07-27T18:37:53.969Z,3.10
2017-07-27T18:40:21.412Z,3.17
2017-07-27T18:42:48.861Z,3.57
2017-07-27T18:45:17.984Z,3.17
2017-07-27T18:47:45.457Z,3.13
2017-07-27T18:50:12.994Z,3.53
2017-07-27T18:52:40.432Z,3.70
2017-07-27T18:55:07.878Z,3.37
2017-07-27T18:57:36.076Z,4.13
2017-07-27T19:00:04.285Z,3.60
2017-07-27T19:02:31.734Z,3.87
2017-07-27T19:04:59.195Z,3.87
2017-07-27T19:07:26.633Z,3.60
2017-07-27T19:09:54.065Z,3.40
2017-07-27T19:12:21.510Z,2.90
2017-07-27T19:14:48.977Z,3.70
2017-07-27T19:17:16.525Z,3.03
2017-07-27T19:19:43.976Z,4.77
2017-07-27T19:22:11.439Z,3.70
2017-07-27T19:24:38.895Z,3.57
2017-07-27T19:27:06.316Z,4.03
2017-07-27T19:29:33.828Z,4.27
2017-07-27T19:32:01.263Z,4.30
2017-07-27T19:34:28.721Z,4.40
2017-07-27T19:36:56.178Z,4.37
2017-07-27T19:39:24.401Z,3.70
2017-07-27T19:41:51.839Z,4.00
2017-07-27T19:44:19.272Z,4.30
2017-07-27T19:46:46.725Z,4.33
2017-07-27T19:49:14.165Z,4.60
2017-07-27T19:51:41.605Z,4.97
2017-07-27T19:54:09.041Z,5.53
2017-07-27T19:56:36.497Z,5.03
2017-07-27T19:59:03.969Z,4.87
2017-07-27T20:01:31.411Z,4.80
2017-07-27T20:03:58.867Z,5.10
2017-07-27T20:06:27.060Z,5.40
2017-07-27T20:08:54.554Z,4.20
2017-07-27T20:11:22.056Z,5.23
2017-07-27T20:13:49.524Z,5.00
2017-07-27T20:16:16.980Z,5.30
2017-07-27T20:18:44.423Z,4.33
2017-07-27T20:21:11.891Z,4.80
2017-07-27T20:23:39.325Z,4.87
2017-07-27T20:26:07.532Z,5.83
2017-07-27T20:28:35.103Z,6.03
2017-07-27T20:31:03.031Z,5.80
2017-07-27T20:33:30.495Z,5.33
2017-07-27T20:35:57.947Z,5.50
2017-07-27T20:38:25.402Z,6.77
2017-07-27T20:40:52.841Z,6.17
2017-07-27T20:43:20.293Z,6.93
2017-07-27T20:45:47.785Z,7.07
2017-07-27T20:48:15.357Z,6.67
2017-07-27T20:50:42.861Z,6.40
2017-07-27T20:53:10.303Z,6.70
2017-07-27T20:55:37.754Z,7.47
2017-07-27T20:58:05.259Z,6.63
2017-07-27T21:00:32.697Z,7.70
2017-07-27T21:03:00.173Z,6.83
2017-07-27T21:05:27.876Z,6.50
2017-07-27T21:07:55.318Z,7.53
2017-07-27T21:10:22.792Z,7.33
2017-07-27T21:12:51.001Z,5.70
2017-07-27T21:15:18.438Z,7.00
2017-07-27T21:17:45.930Z,6.30
2017-07-27T21:20:13.378Z,6.40
2017-07-27T21:22:41.592Z,5.63
2017-07-27T21:25:09.037Z,5.87
2017-07-27T21:27:36.889Z,7.37
2017-07-27T21:30:04.350Z,5.23
2017-07-27T21:32:31.803Z,6.10
2017-07-27T21:34:59.236Z,7.23
2017-07-27T21:37:26.674Z,6.90
2017-07-27T21:39:54.132Z,6.47
2017-07-27T21:42:22.408Z,6.57
2017-07-27T21:44:50.636Z,5.20
2017-07-27T21:47:18.074Z,4.53
2017-07-27T21:49:45.628Z,5.20
2017-07-27T21:52:13.073Z,4.60
2017-07-27T21:54:40.517Z,5.00
2017-07-27T21:57:07.977Z,5.03
2017-07-27T21:59:35.405Z,5.93
2017-07-27T22:02:02.844Z,5.50
2017-07-27T22:04:30.290Z,5.40
2017-07-27T22:06:57.735Z,5.33
2017-07-27T22:09:25.250Z,5.03
2017-07-27T22:11:52.816Z,5.10
2017-07-27T22:14:20.261Z,5.00
2017-07-27T22:16:47.709Z,5.23
2017-07-27T22:19:15.247Z,5.00
2017-07-27T22:21:42.684Z,5.90
2017-07-27T22:24:10.129Z,5.00
2017-07-27T22:26:37.561Z,6.50
2017-07-27T22:29:05.054Z,6.60
2017-07-27T22:31:32.520Z,5.80
2017-07-27T22:33:59.995Z,5.40
2017-07-27T22:36:27.437Z,6.40
2017-07-27T22:38:54.868Z,6.30
2017-07-27T22:41:22.320Z,4.50
2017-07-27T22:43:49.768Z,5.27
2017-07-27T22:46:17.311Z,5.20
2017-07-27T22:48:44.761Z,5.10
2017-07-27T22:51:12.196Z,4.50
2017-07-27T22:53:39.632Z,4.40
2017-07-27T22:56:07.080Z,4.40
2017-07-27T22:58:34.610Z,4.20
2017-07-27T23:01:02.064Z,4.37
2017-07-27T23:03:29.505Z,5.20
2017-07-27T23:05:57.038Z,4.83
2017-07-27T23:08:24.464Z,4.40
2017-07-27T23:10:51.901Z,4.90
2017-07-27T23:13:19.545Z,5.70
2017-07-27T23:15:47.040Z,5.90
2017-07-27T23:18:14.483Z,6.60
2017-07-27T23:20:41.917Z,6.10
2017-07-27T23:23:09.477Z,6.20
2017-07-27T23:25:37.020Z,6.17
2017-07-27T23:28:04.461Z,7.03
2017-07-27T23:30:31.996Z,7.00
2017-07-27T23:32:59.447Z,6.63
2017-07-27T23:35:26.897Z,7.57
2017-07-27T23:37:54.342Z,6.97
2017-07-27T23:40:22.553Z,7.30
2017-07-27T23:42:49.985Z,7.33
2017-07-27T23:45:17.453Z,7.27
2017-07-27T23:47:44.879Z,7.10
2017-07-27T23:50:12.409Z,7.53
2017-07-27T23:52:39.865Z,7.50
2017-07-27T23:55:07.300Z,8.17
2017-07-27T23:57:34.745Z,9.40
